Terminal Aerodrome Forecast
Issued by NWS

Home | Current Version | Previous Version | Text Only | Print | Product List | Glossary Off
Versions: 1 2 3 4 5 6 7 8 9 10 11 12 13 14 15 16 17 18 19

000
FTUS43 KBIS 010525
TAFDIK
TAF
KDIK 010525Z 0106/0206 22005KT P6SM SKC
     FM011500 23012G18KT P6SM SKC
     FM011800 24013G22KT P6SM SCT070
     FM020100 18008KT P6SM FEW070=

USA.gov is the U.S. government's official web portal to all federal, state and local government web resources and services.